Anchorage, Kentucky
Current Conditions -  °F | °C
As of 4:31 AM on Tuesday 21 Oct 2014 (Local Time) from KLOU Reporting Station
Haze Haze  
Wind Chill: 48°   Ceiling: 200
Heat Index: 48°   Visibility: 0.75mi
Dew Point: 47°   Wind: 3mph
Humidity: 96%   Direction: 290°WNW
Pressure: 29.97"   Gusts: NA
Location:  38.2621°N, 85.5415°W
Report Text: KLOU 210831Z AUTO 29003KT 3/4SM BR VV002 09/08 A2997 RMK AO2 T00890083
Loading
Personal Weather Stations






























Interactive Weather Map
Tropical Storm Tracking
New forecast layout! Learn more

10-Day Weather Forecast

Advertisements
Track Severe Weather on mobile